Time;durP1;ratioP1;P1;durP2;ratioP2;P2;SDS_P1;SDS_P2;PMS_P1;PMS_P2;Temp;Humidity;BMP_temperature;BMP_pressure;BME280_temperature;BME280_humidity;BME280_pressure;Samples;Min_cycle;Max_cycle;Signal;HPM_P1;HPM_P2
2022/10/30 00:00:44;;;;;;;27.00;15.35;;;11.90;79.40;;;;;;5074064;28;20025;-17
2022/10/30 00:03:11;;;;;;;25.50;16.73;;;11.90;79.40;;;;;;5073377;28;20028;-16
2022/10/30 00:05:43;;;;;;;24.23;15.90;;;11.90;79.50;;;;;;5073956;28;20060;-18
2022/10/30 00:08:14;;;;;;;20.65;13.52;;;11.90;79.60;;;;;;5073666;28;20428;-17
2022/10/30 00:10:40;;;;;;;23.17;13.55;;;11.90;79.50;;;;;;5073577;28;20375;-17
2022/10/30 00:13:07;;;;;;;25.00;14.60;;;11.90;79.60;;;;;;5073436;28;20033;-17
2022/10/30 00:15:33;;;;;;;21.77;13.65;;;11.90;79.50;;;;;;5073779;28;20020;-15
2022/10/30 00:18:00;;;;;;;27.83;16.95;;;11.90;79.20;;;;;;5072176;28;20369;-15
2022/10/30 00:20:25;;;;;;;25.83;16.58;;;11.90;79.40;;;;;;5073389;28;20063;-17
2022/10/30 00:22:52;;;;;;;28.17;16.75;;;11.90;79.70;;;;;;5073200;28;20059;-16
2022/10/30 00:25:18;;;;;;;21.65;14.05;;;11.80;79.40;;;;;;5073901;28;20379;-16
2022/10/30 00:27:43;;;;;;;22.70;14.30;;;11.80;79.20;;;;;;5073674;28;20527;-17
2022/10/30 00:30:10;;;;;;;21.27;14.23;;;11.70;79.40;;;;;;5073114;28;20053;-15
2022/10/30 00:32:36;;;;;;;21.60;13.50;;;11.70;79.30;;;;;;5073483;28;20040;-16
2022/10/30 00:35:03;;;;;;;21.95;12.93;;;11.70;79.00;;;;;;5073009;28;20028;-16
2022/10/30 00:37:29;;;;;;;22.20;13.30;;;11.70;79.20;;;;;;5073130;28;20430;-16
2022/10/30 00:39:54;;;;;;;17.80;11.50;;;11.60;79.00;;;;;;5073418;28;20032;-15
2022/10/30 00:42:20;;;;;;;24.02;14.18;;;11.60;79.00;;;;;;5071944;28;20039;-16
2022/10/30 00:44:54;;;;;;;25.80;15.68;;;11.70;79.10;;;;;;5073096;28;20036;-16
2022/10/30 00:47:29;;;;;;;19.98;12.20;;;11.60;79.30;;;;;;5073278;28;20046;-15
2022/10/30 00:50:01;;;;;;;28.27;16.17;;;11.60;79.00;;;;;;5071895;28;20060;-17
2022/10/30 00:52:32;;;;;;;28.15;16.35;;;11.60;79.00;;;;;;5073370;28;20384;-16
2022/10/30 00:55:02;;;;;;;27.90;18.00;;;11.60;79.40;;;;;;5073011;28;20511;-16
2022/10/30 00:57:29;;;;;;;22.48;13.93;;;11.60;79.60;;;;;;5073344;28;20194;-16
2022/10/30 00:59:55;;;;;;;32.08;18.73;;;11.50;79.40;;;;;;5073216;28;20388;-16
2022/10/30 01:02:21;;;;;;;25.10;14.85;;;11.50;79.50;;;;;;5073242;28;20020;-16
2022/10/30 01:04:50;;;;;;;23.45;15.57;;;11.40;79.50;;;;;;5073102;28;20032;-20
2022/10/30 01:07:17;;;;;;;25.52;14.98;;;11.40;79.50;;;;;;5073237;28;20029;-15
2022/10/30 01:09:45;;;;;;;21.17;14.10;;;11.40;79.60;;;;;;5073138;28;20033;-15
2022/10/30 01:12:10;;;;;;;35.63;20.58;;;11.40;79.70;;;;;;5072868;28;20519;-17
2022/10/30 01:14:40;;;;;;;30.95;17.35;;;11.40;79.70;;;;;;5075293;28;20032;-17
2022/10/30 01:17:30;;;;;;;22.63;14.60;;;11.40;79.70;;;;;;5076721;28;20107;-16
2022/10/30 01:20:15;;;;;;;23.98;15.23;;;11.40;79.90;;;;;;5077244;28;20021;-14
2022/10/30 01:22:52;;;;;;;23.83;15.65;;;11.40;80.00;;;;;;5076817;28;20446;-16
2022/10/30 01:25:44;;;;;;;22.15;14.07;;;11.30;79.80;;;;;;5076654;28;20036;-16
2022/10/30 01:28:34;;;;;;;22.02;14.68;;;11.30;79.90;;;;;;5077081;28;20043;-18
2022/10/30 01:31:08;;;;;;;33.38;19.75;;;11.30;79.90;;;;;;5076318;28;20037;-16
2022/10/30 01:33:55;;;;;;;21.77;13.48;;;11.30;80.30;;;;;;5076548;28;20036;-16
2022/10/30 01:36:36;;;;;;;18.27;12.43;;;11.30;80.10;;;;;;5076524;28;20025;-16
2022/10/30 01:39:06;;;;;;;18.00;11.43;;;11.20;79.90;;;;;;5076315;28;20024;-15
2022/10/30 01:41:31;;;;;;;20.45;13.00;;;11.30;79.90;;;;;;5076370;28;20028;-16
2022/10/30 01:44:06;;;;;;;25.90;15.38;;;11.20;79.90;;;;;;5076875;28;20032;-17
2022/10/30 01:47:14;;;;;;;32.47;19.70;;;11.20;80.00;;;;;;5076629;28;20028;-17
2022/10/30 01:49:43;;;;;;;30.38;17.10;;;11.20;80.10;;;;;;5076748;28;20025;-15
2022/10/30 01:52:15;;;;;;;19.20;12.45;;;11.20;80.20;;;;;;5076255;28;20032;-15
2022/10/30 01:55:01;;;;;;;29.05;15.43;;;11.10;80.10;;;;;;5076497;28;20024;-15
2022/10/30 01:57:43;;;;;;;20.20;12.07;;;11.10;80.10;;;;;;5076764;28;20380;-15
2022/10/30 02:00:15;;;;;;;20.13;12.23;;;11.00;80.00;;;;;;5076458;28;20035;-16
2022/10/30 02:02:42;;;;;;;17.10;11.77;;;11.10;80.10;;;;;;5075433;28;20369;-18
2022/10/30 02:05:12;;;;;;;21.02;13.43;;;11.00;80.20;;;;;;5075755;28;20054;-16
2022/10/30 02:07:38;;;;;;;23.55;15.85;;;11.00;80.20;;;;;;5076254;28;20033;-17
2022/10/30 02:10:04;;;;;;;22.27;13.02;;;10.90;80.40;;;;;;5075039;28;20032;-15
2022/10/30 02:12:30;;;;;;;25.80;13.98;;;11.00;80.00;;;;;;5076052;28;20387;-16
2022/10/30 02:14:59;;;;;;;24.70;14.18;;;10.90;80.40;;;;;;5075719;28;20483;-15
2022/10/30 02:17:27;;;;;;;21.92;13.45;;;10.90;80.30;;;;;;5075941;28;20031;-15
2022/10/30 02:19:52;;;;;;;23.17;13.73;;;10.90;80.30;;;;;;5075786;28;20021;-15
2022/10/30 02:22:18;;;;;;;25.58;15.30;;;10.90;80.20;;;;;;5075718;28;20025;-15
2022/10/30 02:24:45;;;;;;;27.08;17.00;;;10.90;80.50;;;;;;5075546;28;20507;-15
2022/10/30 02:27:11;;;;;;;31.33;18.20;;;10.90;80.60;;;;;;5075402;28;20033;-14
2022/10/30 02:29:37;;;;;;;21.80;14.05;;;10.80;80.70;;;;;;5075829;28;20500;-14
2022/10/30 02:32:03;;;;;;;24.35;15.52;;;10.80;80.70;;;;;;5075541;28;20021;-17
2022/10/30 02:34:29;;;;;;;29.23;16.70;;;10.80;80.70;;;;;;5075324;28;20037;-13
2022/10/30 02:36:54;;;;;;;24.55;14.80;;;10.80;80.50;;;;;;5075339;28;20017;-13
2022/10/30 02:39:20;;;;;;;28.10;15.23;;;10.70;80.70;;;;;;5075284;28;20033;-14
2022/10/30 02:41:47;;;;;;;28.73;16.73;;;10.70;80.70;;;;;;5075407;28;20051;-15
2022/10/30 02:44:13;;;;;;;31.67;17.20;;;10.60;81.00;;;;;;5075502;28;20059;-15
2022/10/30 02:46:39;;;;;;;24.63;15.27;;;10.70;81.10;;;;;;5075825;28;20052;-17
2022/10/30 02:49:05;;;;;;;21.27;12.52;;;10.60;81.10;;;;;;5075233;28;20028;-16
2022/10/30 02:51:31;;;;;;;22.83;12.77;;;10.60;81.00;;;;;;5075183;28;20050;-17
2022/10/30 02:53:58;;;;;;;21.20;12.50;;;10.60;80.90;;;;;;5075296;28;20017;-18
2022/10/30 02:56:24;;;;;;;18.60;12.45;;;10.60;80.90;;;;;;5075081;28;20028;-17
2022/10/30 02:58:49;;;;;;;18.73;13.50;;;10.60;80.70;;;;;;5074832;28;20025;-16
2022/10/30 03:01:18;;;;;;;21.92;12.27;;;10.60;80.80;;;;;;5075217;28;20048;-17
2022/10/30 03:03:45;;;;;;;23.60;15.15;;;10.60;80.80;;;;;;5074842;28;20024;-16
2022/10/30 03:06:14;;;;;;;20.80;14.35;;;10.60;80.90;;;;;;5075096;28;20020;-17
2022/10/30 03:08:41;;;;;;;20.10;12.95;;;10.60;81.00;;;;;;5075133;28;20028;-18
2022/10/30 03:11:14;;;;;;;23.95;14.60;;;10.60;80.70;;;;;;5075175;28;20454;-15
2022/10/30 03:13:40;;;;;;;20.70;13.05;;;10.60;80.80;;;;;;5074704;28;20036;-17
2022/10/30 03:16:12;;;;;;;18.02;12.27;;;10.50;80.60;;;;;;5074702;28;20020;-17
2022/10/30 03:18:38;;;;;;;25.65;15.88;;;10.50;80.50;;;;;;5074781;28;20056;-16
2022/10/30 03:21:06;;;;;;;26.48;16.27;;;10.50;80.90;;;;;;5074296;28;20491;-15
2022/10/30 03:23:33;;;;;;;27.98;18.33;;;10.50;81.00;;;;;;5074502;28;20431;-16
2022/10/30 03:25:59;;;;;;;20.23;11.07;;;10.50;81.00;;;;;;5075006;28;20016;-17
2022/10/30 03:28:27;;;;;;;19.15;12.13;;;10.40;80.60;;;;;;5074438;28;20146;-16
2022/10/30 03:31:04;;;;;;;18.55;12.10;;;10.40;80.80;;;;;;5073899;28;20059;-16
2022/10/30 03:33:31;;;;;;;21.17;13.93;;;10.40;80.70;;;;;;5074805;28;20048;-16
2022/10/30 03:35:57;;;;;;;22.13;14.13;;;10.40;80.80;;;;;;5074204;28;20017;-16
2022/10/30 03:38:23;;;;;;;28.23;15.70;;;10.40;80.90;;;;;;5074084;28;20036;-17
2022/10/30 03:40:49;;;;;;;22.75;14.27;;;10.30;81.00;;;;;;5074423;28;20384;-17
2022/10/30 03:43:16;;;;;;;20.67;12.73;;;10.40;81.00;;;;;;5074277;28;20039;-16
2022/10/30 03:45:49;;;;;;;18.77;12.48;;;10.30;81.00;;;;;;5074243;28;20055;-17
2022/10/30 03:48:17;;;;;;;21.67;14.40;;;10.30;80.70;;;;;;5073997;28;20024;-18
2022/10/30 03:50:43;;;;;;;21.88;14.38;;;10.30;80.90;;;;;;5074092;28;20032;-15
2022/10/30 03:53:09;;;;;;;24.80;14.32;;;10.30;81.10;;;;;;5073807;28;20503;-16
2022/10/30 03:55:35;;;;;;;26.38;15.77;;;10.30;81.20;;;;;;5074289;28;20021;-17
2022/10/30 03:58:01;;;;;;;33.45;19.92;;;10.30;81.10;;;;;;5073829;28;20039;-16
2022/10/30 04:00:27;;;;;;;26.35;15.50;;;10.20;81.30;;;;;;5073805;28;20114;-16
2022/10/30 04:02:53;;;;;;;25.02;15.57;;;10.20;81.30;;;;;;5073500;28;20032;-16
2022/10/30 04:05:22;;;;;;;27.52;14.48;;;10.20;81.30;;;;;;5074297;28;20384;-18
2022/10/30 04:07:48;;;;;;;25.70;16.35;;;10.10;81.30;;;;;;5074023;28;20021;-18
2022/10/30 04:10:14;;;;;;;35.83;20.50;;;10.10;81.30;;;;;;5074018;28;20074;-16
2022/10/30 04:12:40;;;;;;;21.83;13.75;;;10.10;81.70;;;;;;5073867;28;20094;-17
2022/10/30 04:15:08;;;;;;;24.05;14.57;;;10.10;81.40;;;;;;5073290;28;20515;-17
2022/10/30 04:17:34;;;;;;;25.15;15.45;;;10.10;81.20;;;;;;5073742;28;20071;-16
2022/10/30 04:20:00;;;;;;;22.48;13.65;;;10.10;81.40;;;;;;5074047;28;20024;-18
2022/10/30 04:22:26;;;;;;;20.05;13.77;;;10.10;81.20;;;;;;5073845;28;20103;-19
2022/10/30 04:24:52;;;;;;;24.85;15.82;;;10.10;81.30;;;;;;5073206;28;20496;-16
2022/10/30 04:27:19;;;;;;;21.73;13.88;;;10.10;81.50;;;;;;5073735;28;20044;-17
2022/10/30 04:29:46;;;;;;;29.40;17.75;;;10.10;81.40;;;;;;5073304;28;20052;-16
2022/10/30 04:32:13;;;;;;;20.92;13.18;;;10.10;81.60;;;;;;5073643;28;20067;-18
2022/10/30 04:34:39;;;;;;;26.50;14.65;;;10.10;81.50;;;;;;5073271;28;20021;-18
2022/10/30 04:37:06;;;;;;;27.40;15.15;;;10.00;81.40;;;;;;5073683;28;20100;-18
2022/10/30 04:39:32;;;;;;;22.95;14.65;;;10.10;81.30;;;;;;5073298;28;20496;-18
2022/10/30 04:41:58;;;;;;;30.55;18.42;;;10.00;81.30;;;;;;5073738;28;20074;-17
2022/10/30 04:44:24;;;;;;;30.17;18.70;;;10.00;81.70;;;;;;5073097;28;20020;-17
2022/10/30 04:46:51;;;;;;;22.20;14.73;;;10.00;81.80;;;;;;5072859;28;20028;-18
2022/10/30 04:49:17;;;;;;;20.48;13.27;;;10.00;82.00;;;;;;5073885;28;20037;-18
2022/10/30 04:51:45;;;;;;;19.25;11.77;;;9.90;81.60;;;;;;5073451;28;20039;-16
2022/10/30 04:54:11;;;;;;;22.70;14.88;;;9.90;81.60;;;;;;5073068;28;20032;-18
2022/10/30 04:56:37;;;;;;;23.20;13.90;;;9.90;81.80;;;;;;5073669;28;20024;-18
2022/10/30 04:59:03;;;;;;;21.02;12.57;;;9.90;81.80;;;;;;5072274;28;20372;-15
2022/10/30 05:01:29;;;;;;;19.13;11.98;;;9.90;81.80;;;;;;5072999;28;20032;-18
2022/10/30 05:03:57;;;;;;;26.45;15.52;;;9.90;81.50;;;;;;5073277;28;20036;-17
2022/10/30 05:06:29;;;;;;;19.95;13.38;;;9.90;81.70;;;;;;5073120;28;20031;-18
2022/10/30 05:08:55;;;;;;;18.30;12.85;;;9.90;81.50;;;;;;5073045;28;20480;-16
2022/10/30 05:11:22;;;;;;;19.45;11.77;;;9.90;81.50;;;;;;5072888;28;20107;-17
2022/10/30 05:13:48;;;;;;;24.77;14.45;;;9.90;81.60;;;;;;5073293;28;20028;-18
2022/10/30 05:16:14;;;;;;;20.23;12.10;;;9.90;81.70;;;;;;5073196;28;20047;-16
2022/10/30 05:18:40;;;;;;;24.50;15.95;;;9.80;81.70;;;;;;5072697;28;20029;-18
2022/10/30 05:21:06;;;;;;;19.50;11.90;;;9.80;81.70;;;;;;5072646;28;20472;-16
2022/10/30 05:23:32;;;;;;;22.42;12.82;;;9.80;81.80;;;;;;5071641;28;20051;-17
2022/10/30 05:26:01;;;;;;;22.55;13.52;;;9.80;81.60;;;;;;5072983;28;20020;-18
2022/10/30 05:28:27;;;;;;;17.90;12.18;;;9.70;81.60;;;;;;5072780;28;20430;-17
2022/10/30 05:30:54;;;;;;;21.15;13.82;;;9.80;81.70;;;;;;5072307;28;20041;-16
2022/10/30 05:33:20;;;;;;;25.15;14.93;;;9.70;81.80;;;;;;5072926;28;20036;-15
2022/10/30 05:35:46;;;;;;;29.77;16.67;;;9.80;81.70;;;;;;5072959;28;20100;-17
2022/10/30 05:38:12;;;;;;;18.52;11.88;;;9.70;81.80;;;;;;5072911;28;20128;-16
2022/10/30 05:40:38;;;;;;;16.50;11.52;;;9.70;81.80;;;;;;5072833;28;20474;-18
2022/10/30 05:43:05;;;;;;;16.15;10.90;;;9.70;81.70;;;;;;5072383;28;20518;-16
2022/10/30 05:45:31;;;;;;;15.68;10.07;;;9.70;81.80;;;;;;5072941;28;20025;-17
2022/10/30 05:48:02;;;;;;;23.08;14.85;;;9.60;81.70;;;;;;5072432;28;20020;-16
2022/10/30 05:50:29;;;;;;;18.67;12.10;;;9.60;81.80;;;;;;5073180;28;20028;-17
2022/10/30 05:53:01;;;;;;;18.77;11.95;;;9.60;82.00;;;;;;5072637;28;20029;-17
2022/10/30 05:55:28;;;;;;;18.60;11.75;;;9.60;81.90;;;;;;5073067;28;20538;-16
2022/10/30 05:57:56;;;;;;;19.10;12.40;;;9.60;82.00;;;;;;5072755;28;20025;-16
2022/10/30 06:00:22;;;;;;;16.63;10.88;;;9.60;82.00;;;;;;5074197;28;20052;-18
2022/10/30 06:02:47;;;;;;;15.70;9.93;;;9.60;81.80;;;;;;5076222;28;20063;-17
2022/10/30 06:05:13;;;;;;;20.85;12.35;;;9.60;81.70;;;;;;5075899;28;20025;-17
2022/10/30 06:07:39;;;;;;;20.52;12.45;;;9.70;81.70;;;;;;5075987;28;20058;-17
2022/10/30 06:10:05;;;;;;;21.70;12.50;;;9.70;81.90;;;;;;5076570;28;20020;-16
2022/10/30 06:12:31;;;;;;;17.17;11.00;;;9.60;82.00;;;;;;5074716;28;20074;-18
2022/10/30 06:14:57;;;;;;;15.35;11.35;;;9.70;81.90;;;;;;5076004;28;20415;-18
2022/10/30 06:17:24;;;;;;;23.38;11.48;;;9.70;81.90;;;;;;5076184;28;20024;-17
2022/10/30 06:19:50;;;;;;;16.92;11.15;;;9.80;82.10;;;;;;5076194;28;20039;-18
2022/10/30 06:22:16;;;;;;;21.40;13.80;;;9.80;82.00;;;;;;5075711;28;20116;-18
2022/10/30 06:24:42;;;;;;;26.10;15.63;;;9.90;82.20;;;;;;5075777;28;20099;-16
2022/10/30 06:27:08;;;;;;;27.10;14.70;;;9.90;82.20;;;;;;5075612;28;20425;-18
2022/10/30 06:29:34;;;;;;;22.48;13.52;;;9.90;82.20;;;;;;5075526;28;20040;-16
2022/10/30 06:32:00;;;;;;;17.30;12.05;;;10.00;82.40;;;;;;5075529;28;20499;-16
2022/10/30 06:34:26;;;;;;;17.35;10.68;;;10.10;82.50;;;;;;5075431;28;20077;-16
2022/10/30 06:36:52;;;;;;;20.40;12.52;;;10.20;82.50;;;;;;5075242;28;20070;-17
2022/10/30 06:39:18;;;;;;;23.23;13.52;;;10.30;82.80;;;;;;5075666;28;20396;-17
2022/10/30 06:41:44;;;;;;;16.90;10.75;;;10.40;82.70;;;;;;5075603;28;20036;-15
2022/10/30 06:44:09;;;;;;;16.10;9.95;;;10.50;82.70;;;;;;5075308;28;20043;-17
2022/10/30 06:46:35;;;;;;;16.45;10.23;;;10.70;82.90;;;;;;5075185;28;20033;-16
2022/10/30 06:49:02;;;;;;;15.43;10.40;;;10.90;82.90;;;;;;5073717;28;20032;-16
2022/10/30 06:51:28;;;;;;;17.63;11.02;;;11.10;82.90;;;;;;5075440;28;20468;-17
2022/10/30 06:53:53;;;;;;;18.15;12.57;;;11.30;82.70;;;;;;5075156;28;20031;-17
2022/10/30 06:56:19;;;;;;;15.95;10.15;;;11.60;82.60;;;;;;5075112;28;20029;-18
2022/10/30 06:58:46;;;;;;;17.27;11.27;;;11.80;82.10;;;;;;5075092;28;20032;-17
2022/10/30 07:01:12;;;;;;;19.10;12.40;;;12.00;82.00;;;;;;5075115;28;20028;-18
2022/10/30 07:03:38;;;;;;;22.77;15.15;;;12.30;81.90;;;;;;5075103;28;20027;-17
2022/10/30 07:06:04;;;;;;;19.60;11.80;;;12.50;81.50;;;;;;5074854;28;20029;-17
2022/10/30 07:08:30;;;;;;;18.38;11.95;;;12.70;80.90;;;;;;5075124;28;20025;-17
2022/10/30 07:10:57;;;;;;;19.27;13.98;;;12.90;80.60;;;;;;5073894;28;20032;-17
2022/10/30 07:13:24;;;;;;;27.55;19.13;;;13.20;80.40;;;;;;5074952;28;20029;-16
2022/10/30 07:15:50;;;;;;;27.48;17.13;;;13.40;80.00;;;;;;5074728;28;20502;-16
2022/10/30 07:18:16;;;;;;;22.55;14.30;;;13.60;79.70;;;;;;5074682;28;20039;-16
2022/10/30 07:20:42;;;;;;;20.17;12.95;;;13.70;79.50;;;;;;5056825;28;20025;-16
2022/10/30 07:23:07;;;;;;;19.25;12.27;;;13.80;79.40;;;;;;5074344;28;20108;-16
2022/10/30 07:25:33;;;;;;;24.48;15.55;;;13.90;79.50;;;;;;5074759;28;20029;-16
2022/10/30 07:28:00;;;;;;;21.35;14.93;;;14.10;79.70;;;;;;5075107;28;20480;-17
2022/10/30 07:30:26;;;;;;;27.13;14.93;;;14.20;79.10;;;;;;5074198;28;20438;-16
2022/10/30 07:33:00;;;;;;;22.65;14.50;;;14.20;78.80;;;;;;5074484;28;20028;-18
2022/10/30 07:35:27;;;;;;;21.58;13.30;;;14.20;79.10;;;;;;5074726;28;20028;-15
2022/10/30 07:37:53;;;;;;;23.35;14.88;;;14.30;79.40;;;;;;5074364;28;20013;-15
2022/10/30 07:40:20;;;;;;;20.63;13.38;;;14.30;79.40;;;;;;5074144;28;20032;-17
2022/10/30 07:42:46;;;;;;;18.48;11.68;;;14.40;79.80;;;;;;5074157;28;20492;-17
2022/10/30 07:45:12;;;;;;;19.45;12.10;;;14.50;79.30;;;;;;5073833;28;20016;-16
2022/10/30 07:47:40;;;;;;;20.38;13.15;;;14.70;78.80;;;;;;5074411;28;20020;-15
2022/10/30 07:50:07;;;;;;;20.10;12.73;;;14.90;78.80;;;;;;5074371;28;20029;-15
2022/10/30 07:52:33;;;;;;;17.63;11.43;;;15.00;78.50;;;;;;5074303;28;20349;-17
2022/10/30 07:54:59;;;;;;;19.00;12.27;;;15.10;78.00;;;;;;5073985;28;20040;-16
2022/10/30 07:57:25;;;;;;;19.13;13.10;;;15.30;77.80;;;;;;5074556;28;20481;-17
2022/10/30 07:59:51;;;;;;;19.20;12.63;;;15.40;77.50;;;;;;5073878;28;20437;-15
2022/10/30 08:02:17;;;;;;;18.70;12.95;;;15.40;77.20;;;;;;5073825;28;20440;-17
2022/10/30 08:04:43;;;;;;;21.10;13.00;;;15.50;77.40;;;;;;5072534;28;20027;-16
2022/10/30 08:07:09;;;;;;;19.73;12.65;;;15.60;77.30;;;;;;5073427;28;20074;-17
2022/10/30 08:09:35;;;;;;;20.92;12.57;;;15.70;77.10;;;;;;5073967;28;20060;-16
2022/10/30 08:12:01;;;;;;;28.38;18.10;;;15.80;76.90;;;;;;5073582;28;20400;-15
2022/10/30 08:14:26;;;;;;;27.95;15.90;;;15.90;77.90;;;;;;5073906;28;20025;-17
2022/10/30 08:16:52;;;;;;;20.58;14.15;;;16.00;78.00;;;;;;5073970;28;20468;-16
2022/10/30 08:19:18;;;;;;;21.10;13.18;;;16.00;77.40;;;;;;5073769;28;20455;-15
2022/10/30 08:21:44;;;;;;;29.55;17.63;;;16.20;77.30;;;;;;5073881;28;20484;-15
2022/10/30 08:24:10;;;;;;;27.88;14.90;;;16.40;77.80;;;;;;5073190;28;20033;-15
2022/10/30 08:26:36;;;;;;;17.88;11.90;;;16.50;77.10;;;;;;5073558;28;20025;-17
2022/10/30 08:29:02;;;;;;;19.52;12.02;;;16.70;76.40;;;;;;5072983;28;20030;-15
2022/10/30 08:31:28;;;;;;;17.88;11.80;;;16.90;76.20;;;;;;5073711;28;20032;-15
2022/10/30 08:33:54;;;;;;;21.05;12.02;;;17.20;75.70;;;;;;5073509;28;20546;-17
2022/10/30 08:36:19;;;;;;;19.70;11.88;;;17.40;75.10;;;;;;5073614;28;20025;-16
2022/10/30 08:38:45;;;;;;;20.27;12.20;;;17.70;74.50;;;;;;5073327;28;20108;-15
2022/10/30 08:41:11;;;;;;;20.88;11.70;;;18.00;74.30;;;;;;5072938;28;20028;-15
2022/10/30 08:43:37;;;;;;;17.63;12.73;;;18.40;73.90;;;;;;5073271;28;20024;-15
2022/10/30 08:46:03;;;;;;;21.55;13.32;;;18.60;73.10;;;;;;5073094;28;20028;-16
2022/10/30 08:48:29;;;;;;;18.55;11.95;;;18.90;72.50;;;;;;5073047;28;20039;-15
2022/10/30 08:51:00;;;;;;;17.90;12.05;;;19.30;72.00;;;;;;5073510;28;20029;-17
2022/10/30 08:53:26;;;;;;;23.27;13.75;;;19.50;71.30;;;;;;5073400;28;20031;-16
2022/10/30 08:55:52;;;;;;;18.73;11.80;;;19.90;70.20;;;;;;5073692;28;20025;-16
2022/10/30 08:58:18;;;;;;;21.10;12.05;;;20.10;69.80;;;;;;5073175;28;20024;-15
2022/10/30 09:00:44;;;;;;;18.05;10.80;;;20.40;69.40;;;;;;5073189;28;20090;-16
2022/10/30 09:03:10;;;;;;;21.50;11.95;;;20.50;69.10;;;;;;5072720;28;20024;-15
2022/10/30 09:05:36;;;;;;;20.95;11.32;;;20.60;68.50;;;;;;5071623;28;20032;-15
2022/10/30 09:08:02;;;;;;;19.13;11.02;;;20.80;68.60;;;;;;5071850;28;20070;-15
2022/10/30 09:10:28;;;;;;;18.80;11.48;;;20.90;68.30;;;;;;5073592;28;20103;-17
2022/10/30 09:12:56;;;;;;;17.10;10.90;;;21.00;68.40;;;;;;5073030;28;20025;-15
2022/10/30 09:15:22;;;;;;;21.85;13.32;;;21.30;68.10;;;;;;5073175;28;20464;-15
2022/10/30 09:17:58;;;;;;;23.25;13.65;;;21.60;67.40;;;;;;5073004;28;20021;-15
2022/10/30 09:20:25;;;;;;;23.55;13.32;;;21.70;66.20;;;;;;5072830;28;20025;-17
2022/10/30 09:22:51;;;;;;;18.70;12.13;;;21.80;66.40;;;;;;5072614;28;20028;-16
2022/10/30 09:25:17;;;;;;;16.60;9.75;;;21.90;66.30;;;;;;5072984;28;20070;-16
2022/10/30 09:27:43;;;;;;;18.13;9.63;;;21.90;65.30;;;;;;5072978;28;20028;-16
2022/10/30 09:30:11;;;;;;;19.08;10.32;;;22.30;64.90;;;;;;5073034;28;20084;-15
2022/10/30 09:32:37;;;;;;;19.52;9.85;;;22.60;64.20;;;;;;5072740;28;20024;-15
2022/10/30 09:35:03;;;;;;;17.25;9.80;;;22.90;63.10;;;;;;5074062;28;20082;-15
2022/10/30 09:37:33;;;;;;;18.13;10.13;;;23.20;62.50;;;;;;5076923;28;20032;-15
2022/10/30 09:39:59;;;;;;;15.32;8.75;;;23.50;62.20;;;;;;5076561;28;20027;-15
2022/10/30 09:42:47;;;;;;;15.95;8.75;;;23.90;61.80;;;;;;5076505;28;20108;-15
2022/10/30 09:45:18;;;;;;;16.33;8.95;;;24.10;60.70;;;;;;5076410;28;20472;-15
2022/10/30 09:48:02;;;;;;;22.58;11.25;;;24.40;59.40;;;;;;5076706;28;20027;-15
2022/10/30 09:50:58;;;;;;;15.95;9.38;;;24.60;58.40;;;;;;5076710;28;20031;-16
2022/10/30 09:53:56;;;;;;;16.40;9.07;;;24.70;57.30;;;;;;5076465;28;20062;-15
2022/10/30 09:56:35;;;;;;;13.52;9.48;;;24.70;57.40;;;;;;5057104;28;20112;-14
2022/10/30 09:59:16;;;;;;;15.70;10.05;;;24.80;57.90;;;;;;5076263;28;20025;-15
2022/10/30 10:02:03;;;;;;;12.68;7.53;;;24.90;57.50;;;;;;5076428;28;20029;-14
2022/10/30 10:04:47;;;;;;;18.55;10.52;;;25.00;57.10;;;;;;5076369;28;20029;-15
2022/10/30 10:07:21;;;;;;;12.73;8.23;;;25.40;54.20;;;;;;5074736;28;20146;-14
2022/10/30 10:09:50;;;;;;;15.05;8.55;;;25.50;54.50;;;;;;5076312;28;20028;-14
2022/10/30 10:12:25;;;;;;;11.80;7.32;;;25.60;54.30;;;;;;5076542;28;20025;-14
2022/10/30 10:14:53;;;;;;;14.13;8.35;;;25.80;54.30;;;;;;5075766;28;20515;-15
2022/10/30 10:17:28;;;;;;;16.92;10.15;;;25.90;53.60;;;;;;5076317;28;20016;-15
2022/10/30 10:20:01;;;;;;;18.67;10.45;;;26.20;53.10;;;;;;5076060;28;20051;-14
2022/10/30 10:22:49;;;;;;;12.75;7.28;;;26.40;52.50;;;;;;5075836;28;20030;-15
2022/10/30 10:25:18;;;;;;;16.35;9.13;;;26.40;52.50;;;;;;5076007;28;20380;-15
2022/10/30 10:28:01;;;;;;;14.15;8.13;;;26.70;52.60;;;;;;5075969;28;20025;-14
2022/10/30 10:30:51;;;;;;;14.90;9.23;;;26.90;51.80;;;;;;5075589;28;20049;-15
2022/10/30 10:33:32;;;;;;;21.35;11.25;;;27.20;51.40;;;;;;5075476;28;20376;-15
2022/10/30 10:36:16;;;;;;;17.88;10.25;;;27.40;49.60;;;;;;5075687;28;20032;-14
2022/10/30 10:38:53;;;;;;;18.35;10.68;;;27.20;49.70;;;;;;5075530;28;20046;-14
2022/10/30 10:42:00;;;;;;;19.77;10.23;;;27.00;50.10;;;;;;5075486;28;20078;-15
2022/10/30 10:44:43;;;;;;;20.35;11.25;;;26.90;50.00;;;;;;5075362;28;20047;-15
2022/10/30 10:47:43;;;;;;;19.98;11.68;;;26.90;50.60;;;;;;5073760;28;20558;-15
2022/10/30 10:50:48;;;;;;;14.95;8.43;;;26.90;48.20;;;;;;5075370;28;20060;-15
2022/10/30 10:53:40;;;;;;;14.43;8.63;;;26.90;50.20;;;;;;5075214;28;20020;-16
2022/10/30 10:56:08;;;;;;;12.13;7.80;;;27.20;50.10;;;;;;5075345;28;20412;-16
2022/10/30 10:58:43;;;;;;;16.88;9.70;;;27.70;49.70;;;;;;5075103;28;20046;-15
2022/10/30 11:01:16;;;;;;;18.83;9.38;;;28.20;48.30;;;;;;5075223;28;20024;-15
2022/10/30 11:03:56;;;;;;;19.00;10.05;;;28.50;47.60;;;;;;5075288;28;20032;-15
2022/10/30 11:06:22;;;;;;;12.55;8.13;;;28.80;46.60;;;;;;5074044;28;20043;-15
2022/10/30 11:08:49;;;;;;;13.10;7.63;;;29.00;46.60;;;;;;5074721;28;20107;-16
2022/10/30 11:11:15;;;;;;;20.02;9.60;;;29.00;46.60;;;;;;5075169;28;20028;-15
2022/10/30 11:13:42;;;;;;;13.45;7.78;;;29.20;45.70;;;;;;5075061;28;20392;-15
2022/10/30 11:16:17;;;;;;;16.35;8.10;;;29.20;45.80;;;;;;5075003;28;20539;-15
2022/10/30 11:18:44;;;;;;;15.18;8.05;;;29.40;45.20;;;;;;5074850;28;20024;-14
2022/10/30 11:21:32;;;;;;;12.32;7.60;;;29.70;45.40;;;;;;5074741;28;20032;-15
2022/10/30 11:23:58;;;;;;;21.98;11.85;;;30.10;44.70;;;;;;5074623;28;20040;-14
2022/10/30 11:26:30;;;;;;;12.43;8.02;;;30.40;43.30;;;;;;5074541;28;20025;-15
2022/10/30 11:29:13;;;;;;;13.23;8.00;;;30.40;43.50;;;;;;5074967;28;20126;-15
2022/10/30 11:31:42;;;;;;;17.90;10.55;;;30.30;43.20;;;;;;5074836;28;20091;-14
2022/10/30 11:34:17;;;;;;;14.95;7.63;;;30.60;43.50;;;;;;5073095;28;20043;-14
2022/10/30 11:36:48;;;;;;;14.75;7.13;;;30.60;42.60;;;;;;5074608;28;20048;-14
2022/10/30 11:39:31;;;;;;;11.20;7.03;;;30.70;43.30;;;;;;5074786;28;20368;-14
2022/10/30 11:42:00;;;;;;;11.60;7.00;;;30.90;42.70;;;;;;5074213;28;20048;-14
2022/10/30 11:44:35;;;;;;;13.65;7.20;;;31.30;42.90;;;;;;5074670;28;20524;-14
2022/10/30 11:47:02;;;;;;;11.25;7.05;;;31.60;41.70;;;;;;5073859;28;20135;-14
2022/10/30 11:49:50;;;;;;;13.77;7.75;;;31.70;41.90;;;;;;5074590;28;20091;-14
2022/10/30 11:52:20;;;;;;;15.10;8.73;;;31.90;41.00;;;;;;5074374;28;20035;-14
2022/10/30 11:54:49;;;;;;;12.63;7.75;;;32.00;39.20;;;;;;5074078;28;20023;-14
2022/10/30 11:57:30;;;;;;;11.07;6.93;;;32.20;39.60;;;;;;5073416;28;20082;-14
2022/10/30 11:59:56;;;;;;;13.98;6.85;;;32.40;39.20;;;;;;5073939;28;20013;-14
2022/10/30 12:02:39;;;;;;;13.60;6.93;;;32.60;39.40;;;;;;5073818;28;20456;-14
2022/10/30 12:05:38;;;;;;;15.17;8.17;;;32.70;38.90;;;;;;5073574;28;20024;-14
2022/10/30 12:08:07;;;;;;;14.13;7.95;;;32.40;37.20;;;;;;5073916;28;20262;-15
2022/10/30 12:10:44;;;;;;;12.23;7.25;;;32.10;39.40;;;;;;5073851;28;20438;-14
2022/10/30 12:13:18;;;;;;;14.57;6.55;;;31.90;39.40;;;;;;5073759;28;20499;-14
2022/10/30 12:15:46;;;;;;;14.23;8.25;;;31.90;40.00;;;;;;5073960;28;20027;-14
2022/10/30 12:18:26;;;;;;;12.43;7.40;;;32.10;39.50;;;;;;5073426;28;20020;-15
2022/10/30 12:20:55;;;;;;;12.82;7.45;;;32.30;39.30;;;;;;5073493;28;20020;-16
2022/10/30 12:23:24;;;;;;;11.60;6.60;;;32.30;39.40;;;;;;5073416;28;20032;-15
2022/10/30 12:26:08;;;;;;;10.98;6.68;;;32.40;39.70;;;;;;5073651;28;20040;-15
2022/10/30 12:28:35;;;;;;;11.20;6.70;;;32.60;39.60;;;;;;5073746;28;20107;-15
2022/10/30 12:31:07;;;;;;;13.20;6.35;;;32.80;39.60;;;;;;5072933;28;20086;-15
2022/10/30 12:33:49;;;;;;;11.52;6.70;;;33.00;39.20;;;;;;5073283;28;20062;-15
2022/10/30 12:36:32;;;;;;;9.23;6.18;;;33.20;38.90;;;;;;5073487;28;20032;-15
2022/10/30 12:39:23;;;;;;;11.32;6.43;;;33.30;38.00;;;;;;5073436;28;20063;-14
2022/10/30 12:42:01;;;;;;;11.70;6.90;;;33.40;37.10;;;;;;5072112;28;20499;-15
2022/10/30 12:44:36;;;;;;;11.65;7.00;;;33.50;38.10;;;;;;5073820;28;20020;-14